Time;durP1;ratioP1;P1;durP2;ratioP2;P2;SDS_P1;SDS_P2;PMS_P1;PMS_P2;Temp;Humidity;BMP_temperature;BMP_pressure;BME280_temperature;BME280_humidity;BME280_pressure;Samples;Min_cycle;Max_cycle;Signal;HPM_P1;HPM_P2
2021/06/09 00:00:00;;;;;;;26.17;18.75;;;17.80;81.30;;;;;;5136580;27;20042;-38
2021/06/09 00:02:25;;;;;;;25.90;19.33;;;18.20;80.30;;;;;;5136961;27;20027;-36
2021/06/09 00:04:51;;;;;;;24.95;20.85;;;17.90;80.70;;;;;;5136560;27;20107;-36
2021/06/09 00:07:17;;;;;;;22.45;19.40;;;17.80;81.10;;;;;;5136753;27;20517;-36
2021/06/09 00:09:42;;;;;;;25.77;19.98;;;17.80;81.40;;;;;;5136826;27;20029;-37
2021/06/09 00:12:08;;;;;;;22.42;19.40;;;17.70;81.70;;;;;;5136612;27;20027;-38
2021/06/09 00:14:34;;;;;;;25.45;18.75;;;17.70;81.80;;;;;;5135040;27;20470;-36
2021/06/09 00:17:00;;;;;;;26.95;21.70;;;17.70;81.70;;;;;;5136453;27;20075;-36
2021/06/09 00:19:27;;;;;;;23.27;19.67;;;17.70;81.70;;;;;;5136286;27;20030;-36
2021/06/09 00:21:55;;;;;;;24.13;20.83;;;17.70;81.60;;;;;;5136453;27;20027;-36
2021/06/09 00:24:22;;;;;;;28.00;22.25;;;17.70;81.80;;;;;;5134582;27;20038;-36
2021/06/09 00:26:49;;;;;;;26.08;20.35;;;17.70;81.90;;;;;;5134851;27;20023;-36
2021/06/09 00:29:14;;;;;;;22.92;20.42;;;17.60;82.10;;;;;;5136006;27;20031;-36
2021/06/09 00:31:41;;;;;;;32.08;21.70;;;17.50;82.20;;;;;;5134651;27;20023;-36
2021/06/09 00:34:07;;;;;;;26.83;19.85;;;17.50;82.30;;;;;;5136001;27;20025;-36
2021/06/09 00:36:33;;;;;;;24.60;21.15;;;17.50;82.40;;;;;;5134770;27;20023;-36
2021/06/09 00:38:58;;;;;;;22.85;18.85;;;17.60;82.30;;;;;;5135936;27;20530;-36
2021/06/09 00:41:24;;;;;;;19.92;16.63;;;17.60;82.40;;;;;;5136165;27;20027;-36
2021/06/09 00:43:51;;;;;;;20.95;17.00;;;17.60;82.50;;;;;;5136014;27;20427;-37
2021/06/09 00:46:16;;;;;;;22.27;17.80;;;17.50;82.60;;;;;;5135385;27;20027;-37
2021/06/09 00:48:43;;;;;;;20.63;17.60;;;17.40;82.90;;;;;;5135779;27;20054;-37
2021/06/09 00:51:16;;;;;;;20.95;18.15;;;17.50;83.20;;;;;;5136697;27;20091;-37
2021/06/09 00:53:48;;;;;;;22.02;18.23;;;17.50;82.80;;;;;;5135893;27;20027;-37
2021/06/09 00:56:14;;;;;;;19.40;17.05;;;17.50;82.70;;;;;;5135983;27;20030;-37
2021/06/09 00:58:42;;;;;;;23.27;18.45;;;17.50;82.70;;;;;;5135673;27;20035;-38
2021/06/09 01:01:09;;;;;;;23.88;19.50;;;17.60;82.70;;;;;;5135343;27;20035;-37
2021/06/09 01:03:36;;;;;;;21.88;18.73;;;17.70;82.40;;;;;;5135336;27;20023;-37
2021/06/09 01:06:03;;;;;;;26.30;19.48;;;17.70;82.30;;;;;;5135267;27;20491;-37
2021/06/09 01:08:34;;;;;;;22.15;19.13;;;17.80;81.90;;;;;;5135409;27;20076;-37
2021/06/09 01:11:00;;;;;;;;;;;17.90;81.40;;;;;;5135870;27;20083;-38
2021/06/09 01:13:26;;;;;;;21.27;17.90;;;18.00;81.20;;;;;;5135052;27;19985;-37
2021/06/09 01:15:52;;;;;;;21.90;19.58;;;18.10;81.00;;;;;;5135250;27;20098;-38
2021/06/09 01:18:19;;;;;;;26.20;18.75;;;18.00;80.80;;;;;;5134957;27;20027;-37
2021/06/09 01:20:46;;;;;;;27.98;20.20;;;18.00;81.20;;;;;;5134839;27;20102;-37
2021/06/09 01:23:12;;;;;;;20.27;17.92;;;18.20;80.60;;;;;;5133872;27;20019;-37
2021/06/09 01:25:38;;;;;;;22.15;19.15;;;18.00;80.70;;;;;;5134817;27;20129;-37
2021/06/09 01:28:07;;;;;;;24.45;18.52;;;17.80;81.30;;;;;;5134936;27;20176;-37
2021/06/09 01:30:32;;;;;;;20.95;18.38;;;17.80;81.10;;;;;;5135025;27;20016;-37
2021/06/09 01:32:58;;;;;;;23.88;19.48;;;17.80;81.20;;;;;;5134241;27;20027;-37
2021/06/09 01:35:24;;;;;;;21.42;18.48;;;17.90;81.10;;;;;;5135121;27;20102;-37
2021/06/09 01:37:50;;;;;;;23.42;19.27;;;17.80;81.50;;;;;;5134822;27;20019;-37
2021/06/09 01:40:21;;;;;;;22.88;19.10;;;17.90;81.40;;;;;;5134816;27;20100;-37
2021/06/09 01:42:48;;;;;;;25.95;20.88;;;17.80;81.40;;;;;;5135571;27;20023;-37
2021/06/09 01:45:21;;;;;;;26.33;20.95;;;17.90;81.40;;;;;;5135261;27;20027;-37
2021/06/09 01:47:47;;;;;;;26.00;20.58;;;17.90;81.40;;;;;;5134655;27;20442;-37
2021/06/09 01:50:15;;;;;;;30.42;22.02;;;18.00;81.30;;;;;;5134946;27;20493;-41
2021/06/09 01:52:42;;;;;;;40.15;26.50;;;18.00;81.20;;;;;;5116220;27;20076;-37
2021/06/09 01:55:10;;;;;;;30.05;24.08;;;18.00;81.00;;;;;;5135279;27;20368;-37
2021/06/09 01:57:36;;;;;;;27.55;23.45;;;18.10;80.90;;;;;;5133823;27;20027;-37
2021/06/09 02:00:07;;;;;;;27.25;22.98;;;18.00;81.00;;;;;;5134471;27;20523;-37
2021/06/09 02:02:33;;;;;;;34.10;25.67;;;18.00;81.20;;;;;;5134424;27;20086;-37
2021/06/09 02:05:00;;;;;;;39.83;25.73;;;18.00;81.30;;;;;;5135037;27;20133;-37
2021/06/09 02:07:25;;;;;;;30.33;24.98;;;18.00;81.20;;;;;;5134390;27;20023;-37
2021/06/09 02:09:51;;;;;;;31.13;25.73;;;18.00;81.00;;;;;;5134630;28;20145;-37
2021/06/09 02:12:20;;;;;;;27.58;23.38;;;18.00;81.10;;;;;;5133182;28;20025;-37
2021/06/09 02:14:46;;;;;;;34.40;24.73;;;17.90;81.10;;;;;;5134500;27;20512;-42
2021/06/09 02:17:12;;;;;;;32.85;22.55;;;17.90;81.40;;;;;;5134590;28;20098;-37
2021/06/09 02:19:38;;;;;;;30.88;22.75;;;17.80;81.50;;;;;;5134473;28;20019;-37
2021/06/09 02:22:04;;;;;;;33.42;24.45;;;17.80;82.00;;;;;;5134247;27;20020;-37
2021/06/09 02:24:30;;;;;;;29.55;23.88;;;17.80;81.80;;;;;;5133235;28;20038;-37
2021/06/09 02:26:57;;;;;;;33.58;27.02;;;17.90;81.50;;;;;;5134456;27;20416;-37
2021/06/09 02:29:23;;;;;;;31.60;23.85;;;18.00;81.10;;;;;;5132863;28;20386;-37
2021/06/09 02:31:50;;;;;;;25.85;21.63;;;18.00;81.20;;;;;;5134747;27;20096;-37
2021/06/09 02:34:24;;;;;;;27.48;20.83;;;18.00;81.70;;;;;;5134430;27;20037;-37
2021/06/09 02:36:54;;;;;;;25.58;21.60;;;17.80;82.20;;;;;;5134110;27;20015;-37
2021/06/09 02:39:21;;;;;;;29.95;21.63;;;17.70;82.90;;;;;;5133241;28;20030;-38
2021/06/09 02:41:48;;;;;;;26.75;20.13;;;17.60;83.10;;;;;;5134067;27;20446;-37
2021/06/09 02:44:14;;;;;;;26.90;22.38;;;17.40;83.80;;;;;;5134079;27;20038;-37
2021/06/09 02:46:47;;;;;;;31.05;22.88;;;17.40;84.30;;;;;;5133183;28;20027;-37
2021/06/09 02:49:16;;;;;;;32.22;24.50;;;17.30;84.50;;;;;;5134134;27;20024;-39
2021/06/09 02:51:58;;;;;;;32.78;25.42;;;17.30;84.60;;;;;;5134358;27;20485;-37
2021/06/09 02:54:36;;;;;;;32.42;22.45;;;17.30;84.80;;;;;;5134377;28;20026;-37
2021/06/09 02:57:47;;;;;;;29.05;23.48;;;17.30;84.90;;;;;;5134198;27;20015;-37
2021/06/09 03:00:17;;;;;;;37.90;26.15;;;17.30;85.20;;;;;;5124801;28;20035;-37
2021/06/09 03:03:08;;;;;;;30.77;23.63;;;17.40;84.80;;;;;;5134261;27;20019;-37
2021/06/09 03:05:41;;;;;;;29.95;25.48;;;17.50;84.00;;;;;;5134200;27;20066;-37
2021/06/09 03:08:25;;;;;;;32.40;24.77;;;17.40;84.20;;;;;;5134071;28;20380;-37
2021/06/09 03:11:17;;;;;;;34.42;25.77;;;17.30;84.50;;;;;;5137014;27;20058;-37
2021/06/09 03:14:15;;;;;;;33.05;26.52;;;17.30;85.00;;;;;;5137949;27;20027;-37
2021/06/09 03:16:43;;;;;;;32.38;23.50;;;17.30;85.10;;;;;;5137650;27;20035;-37
2021/06/09 03:19:15;;;;;;;31.35;23.80;;;17.40;84.50;;;;;;5137531;27;20055;-37
2021/06/09 03:22:06;;;;;;;28.15;24.13;;;17.30;84.60;;;;;;5137628;27;20105;-37
2021/06/09 03:24:38;;;;;;;33.90;24.48;;;17.20;85.20;;;;;;5137336;27;20047;-37
2021/06/09 03:27:40;;;;;;;39.35;29.25;;;17.00;86.00;;;;;;5137628;27;20106;-37
2021/06/09 03:30:12;;;;;;;37.03;27.60;;;16.80;86.50;;;;;;5137308;27;20019;-37
2021/06/09 03:32:54;;;;;;;38.55;28.13;;;16.80;86.80;;;;;;5137228;27;20043;-37
2021/06/09 03:35:47;;;;;;;42.80;29.00;;;16.80;86.90;;;;;;5137495;27;20022;-37
2021/06/09 03:38:22;;;;;;;44.78;31.55;;;16.70;87.00;;;;;;5137209;27;20579;-37
2021/06/09 03:40:52;;;;;;;51.72;31.38;;;16.70;87.30;;;;;;5137190;27;20073;-37
2021/06/09 03:43:21;;;;;;;34.60;28.00;;;16.80;87.20;;;;;;5137168;27;20083;-37
2021/06/09 03:45:50;;;;;;;35.28;28.50;;;16.80;87.20;;;;;;5137230;27;20023;-37
2021/06/09 03:48:18;;;;;;;42.63;29.52;;;16.80;87.20;;;;;;5135833;27;20027;-37
2021/06/09 03:50:46;;;;;;;32.17;24.48;;;16.70;87.20;;;;;;5136950;27;20060;-37
2021/06/09 03:53:13;;;;;;;34.05;27.63;;;16.70;87.10;;;;;;5136905;27;20098;-37
2021/06/09 03:55:43;;;;;;;32.03;24.73;;;16.60;87.10;;;;;;5137284;27;20104;-37
2021/06/09 03:58:13;;;;;;;31.33;24.83;;;16.80;86.90;;;;;;5135475;27;20458;-37
2021/06/09 04:00:41;;;;;;;31.33;24.93;;;16.80;86.60;;;;;;5136958;27;20058;-37
2021/06/09 04:03:08;;;;;;;27.15;24.10;;;16.80;86.90;;;;;;5136669;27;20023;-37
2021/06/09 04:05:37;;;;;;;33.00;25.27;;;16.80;86.80;;;;;;5136644;27;20034;-37
2021/06/09 04:08:04;;;;;;;35.63;27.05;;;16.70;86.60;;;;;;5136437;27;20030;-37
2021/06/09 04:10:30;;;;;;;41.00;28.05;;;16.70;86.50;;;;;;5136539;27;20070;-36
2021/06/09 04:12:57;;;;;;;36.17;27.42;;;16.50;87.10;;;;;;5136438;27;20019;-37
2021/06/09 04:15:24;;;;;;;34.33;27.55;;;16.50;87.60;;;;;;5136416;27;20072;-37
2021/06/09 04:17:51;;;;;;;44.08;28.85;;;16.50;87.60;;;;;;5137472;27;20041;-37
2021/06/09 04:20:23;;;;;;;40.72;29.77;;;16.40;87.90;;;;;;5134719;27;20027;-37
2021/06/09 04:22:49;;;;;;;40.97;29.95;;;16.40;87.90;;;;;;5136103;27;20023;-37
2021/06/09 04:25:15;;;;;;;42.30;29.40;;;16.40;87.90;;;;;;5135979;27;20050;-37
2021/06/09 04:27:44;;;;;;;40.72;29.88;;;16.40;87.90;;;;;;5136120;27;20027;-37
2021/06/09 04:30:10;;;;;;;36.67;28.98;;;16.50;87.80;;;;;;5136178;27;20027;-37
2021/06/09 04:32:50;;;;;;;42.90;32.47;;;16.50;87.70;;;;;;5135236;27;20136;-37
2021/06/09 04:35:15;;;;;;;42.63;30.30;;;16.50;87.50;;;;;;5135921;27;20019;-37
2021/06/09 04:37:41;;;;;;;47.35;31.52;;;16.60;87.60;;;;;;5136531;27;20075;-37
2021/06/09 04:40:13;;;;;;;46.67;31.25;;;16.70;87.40;;;;;;5136952;27;20437;-37
2021/06/09 04:42:41;;;;;;;42.03;32.55;;;16.70;87.20;;;;;;5136227;27;20053;-37
2021/06/09 04:45:07;;;;;;;37.50;28.65;;;16.80;86.80;;;;;;5136073;27;20034;-38
2021/06/09 04:47:32;;;;;;;40.40;27.73;;;16.90;86.20;;;;;;5135667;27;20378;-37
2021/06/09 04:49:58;;;;;;;35.03;26.63;;;16.90;86.00;;;;;;5134796;27;20072;-37
2021/06/09 04:52:24;;;;;;;44.03;33.35;;;16.80;86.20;;;;;;5135233;27;20370;-36
2021/06/09 04:54:50;;;;;;;36.90;28.05;;;16.80;86.50;;;;;;5135644;27;20019;-36
2021/06/09 04:57:16;;;;;;;37.40;29.63;;;16.80;86.30;;;;;;5135556;27;20019;-37
2021/06/09 04:59:42;;;;;;;35.33;27.10;;;16.80;86.30;;;;;;5135316;27;20089;-37
2021/06/09 05:02:08;;;;;;;39.67;29.58;;;17.00;86.00;;;;;;5141580;27;20481;-37
2021/06/09 05:04:34;;;;;;;37.22;28.42;;;17.00;85.80;;;;;;5135668;27;20020;-37
2021/06/09 05:06:59;;;;;;;35.17;26.10;;;17.10;85.80;;;;;;5135405;27;20035;-37
2021/06/09 05:09:25;;;;;;;37.20;28.10;;;17.20;85.60;;;;;;5135308;27;20029;-37
2021/06/09 05:12:07;;;;;;;38.90;28.75;;;17.20;85.20;;;;;;5135439;27;20031;-37
2021/06/09 05:14:37;;;;;;;35.85;27.38;;;17.40;84.80;;;;;;5135516;27;20030;-37
2021/06/09 05:17:04;;;;;;;;;;;17.60;84.10;;;;;;5135871;27;20020;-37
2021/06/09 05:19:33;;;;;;;48.97;35.08;;;17.50;84.10;;;;;;5135080;27;19903;-37
2021/06/09 05:22:08;;;;;;;50.38;37.33;;;17.50;84.30;;;;;;5133622;27;20428;-37
2021/06/09 05:24:36;;;;;;;52.75;35.78;;;17.60;84.30;;;;;;5133755;27;20490;-37
2021/06/09 05:27:03;;;;;;;50.15;34.50;;;17.80;84.10;;;;;;5134883;27;20023;-37
2021/06/09 05:29:29;;;;;;;49.80;35.20;;;17.80;83.90;;;;;;5134990;27;20554;-37
2021/06/09 05:31:55;;;;;;;53.80;36.00;;;17.90;83.70;;;;;;5133238;27;20019;-36
2021/06/09 05:34:22;;;;;;;59.70;40.67;;;18.00;83.30;;;;;;5134693;27;20019;-38
2021/06/09 05:36:49;;;;;;;58.67;39.17;;;18.30;82.00;;;;;;5134711;27;20466;-36
2021/06/09 05:39:19;;;;;;;54.60;39.78;;;18.20;82.10;;;;;;5133336;27;20023;-37
2021/06/09 05:41:45;;;;;;;56.15;41.42;;;18.20;82.10;;;;;;5134712;27;20020;-37
2021/06/09 05:44:15;;;;;;;59.28;42.42;;;18.40;81.40;;;;;;5134627;27;20107;-37
2021/06/09 05:46:43;;;;;;;69.45;47.90;;;18.50;81.30;;;;;;5134869;27;20474;-36
2021/06/09 05:49:17;;;;;;;62.75;45.45;;;18.50;81.40;;;;;;5134632;27;20355;-36
2021/06/09 05:51:43;;;;;;;63.90;44.08;;;18.50;81.40;;;;;;5134378;27;20103;-36
2021/06/09 05:54:09;;;;;;;63.10;43.08;;;18.60;81.10;;;;;;5135325;27;20057;-39
2021/06/09 05:56:34;;;;;;;71.15;45.28;;;18.60;80.70;;;;;;5132988;27;20026;-36
2021/06/09 05:59:00;;;;;;;62.38;44.75;;;18.80;80.50;;;;;;5133139;27;20026;-36
2021/06/09 06:01:28;;;;;;;76.07;45.28;;;18.80;80.30;;;;;;5133231;27;20020;-37
2021/06/09 06:03:55;;;;;;;61.10;43.72;;;18.80;80.70;;;;;;5133042;27;20035;-37
2021/06/09 06:06:22;;;;;;;60.70;43.08;;;18.80;80.20;;;;;;5134246;27;20034;-37
2021/06/09 06:08:48;;;;;;;62.03;44.75;;;19.00;79.60;;;;;;5134449;27;20076;-41
2021/06/09 06:11:15;;;;;;;65.80;45.25;;;19.10;79.60;;;;;;5134037;28;20027;-36
2021/06/09 06:13:46;;;;;;;63.60;46.50;;;19.30;79.10;;;;;;5134199;27;20024;-36
2021/06/09 06:16:14;;;;;;;65.00;44.75;;;19.40;78.10;;;;;;5134380;27;20080;-37
2021/06/09 06:18:42;;;;;;;58.92;44.92;;;19.30;78.60;;;;;;5134654;27;20379;-37
2021/06/09 06:21:15;;;;;;;60.78;44.88;;;19.60;77.80;;;;;;5134250;27;20058;-37
2021/06/09 06:23:42;;;;;;;63.38;43.72;;;19.70;77.40;;;;;;5133768;27;20023;-36
2021/06/09 06:26:11;;;;;;;59.05;42.13;;;20.20;75.80;;;;;;5132926;28;20113;-37
2021/06/09 06:28:39;;;;;;;66.43;47.08;;;20.30;75.10;;;;;;5116261;28;20475;-36
2021/06/09 06:31:11;;;;;;;67.00;44.60;;;20.40;74.50;;;;;;5134183;27;20374;-37
2021/06/09 06:33:38;;;;;;;59.80;44.47;;;20.50;74.90;;;;;;5132991;28;20019;-37
2021/06/09 06:36:04;;;;;;;60.05;42.60;;;20.30;74.90;;;;;;5133904;27;20466;-36
2021/06/09 06:38:30;;;;;;;56.40;40.72;;;20.30;75.00;;;;;;5134116;27;20043;-36
2021/06/09 06:40:55;;;;;;;55.38;40.30;;;20.40;74.80;;;;;;5133870;28;20499;-36
2021/06/09 06:43:21;;;;;;;56.00;41.47;;;20.80;73.40;;;;;;5133758;27;20110;-38
2021/06/09 06:45:47;;;;;;;64.70;47.13;;;20.90;73.10;;;;;;5137321;27;20073;-36
2021/06/09 06:48:15;;;;;;;62.50;44.58;;;21.20;72.10;;;;;;5137465;27;20030;-36
2021/06/09 06:50:43;;;;;;;53.70;37.17;;;21.20;71.60;;;;;;5137473;27;20015;-36
2021/06/09 06:53:10;;;;;;;52.20;38.38;;;21.30;70.50;;;;;;5136632;27;20019;-36
2021/06/09 06:55:35;;;;;;;52.70;40.20;;;21.30;70.20;;;;;;5137526;27;20027;-36
2021/06/09 06:58:02;;;;;;;55.33;42.17;;;21.50;70.00;;;;;;5135900;27;20029;-37
2021/06/09 07:00:28;;;;;;;53.42;41.97;;;21.20;71.10;;;;;;5137350;27;20381;-38
2021/06/09 07:02:59;;;;;;;48.88;38.35;;;21.10;71.50;;;;;;5137120;27;20030;-38
2021/06/09 07:05:26;;;;;;;52.13;35.33;;;21.00;71.60;;;;;;5119088;27;20053;-37
2021/06/09 07:07:56;;;;;;;44.10;34.20;;;21.30;71.20;;;;;;5137236;27;20034;-37
2021/06/09 07:10:22;;;;;;;53.88;37.50;;;21.50;69.90;;;;;;5136104;27;20428;-37
2021/06/09 07:12:49;;;;;;;45.72;35.95;;;21.70;69.60;;;;;;5137139;27;20027;-37
2021/06/09 07:15:18;;;;;;;42.33;34.35;;;21.80;68.80;;;;;;5137230;27;20026;-36
2021/06/09 07:17:48;;;;;;;45.25;32.20;;;21.60;69.00;;;;;;5136976;27;20019;-37
2021/06/09 07:20:16;;;;;;;39.42;31.80;;;21.80;68.50;;;;;;5135457;27;20490;-36
2021/06/09 07:22:42;;;;;;;39.38;30.02;;;21.90;67.60;;;;;;5137014;27;20035;-36
2021/06/09 07:25:09;;;;;;;32.65;27.23;;;22.30;66.70;;;;;;5136957;27;20397;-36
2021/06/09 07:27:38;;;;;;;27.98;24.75;;;23.10;63.30;;;;;;5136813;27;20489;-37
2021/06/09 07:30:06;;;;;;;31.30;25.00;;;23.00;63.30;;;;;;5137197;27;20027;-36
2021/06/09 07:32:40;;;;;;;28.08;22.90;;;23.00;62.60;;;;;;5136756;27;20016;-36
2021/06/09 07:35:07;;;;;;;26.27;21.73;;;24.10;60.00;;;;;;5136891;27;20447;-36
2021/06/09 07:37:36;;;;;;;25.75;22.98;;;24.20;58.80;;;;;;5136544;27;20098;-36
2021/06/09 07:40:07;;;;;;;25.88;22.65;;;24.30;58.20;;;;;;5136546;27;20486;-40
2021/06/09 07:42:34;;;;;;;31.73;24.52;;;24.20;58.60;;;;;;5136639;27;20038;-37
2021/06/09 07:45:09;;;;;;;33.45;22.00;;;24.30;59.00;;;;;;5135454;27;20424;-36
2021/06/09 07:47:36;;;;;;;27.15;22.02;;;24.30;59.10;;;;;;5136728;27;20484;-36
2021/06/09 07:50:08;;;;;;;23.00;20.55;;;24.40;58.50;;;;;;5136417;27;20110;-37
2021/06/09 07:52:36;;;;;;;22.85;20.33;;;25.00;56.50;;;;;;5136561;27;20019;-38
2021/06/09 07:55:04;;;;;;;25.83;22.27;;;24.70;56.90;;;;;;5134722;27;20073;-37
2021/06/09 07:57:34;;;;;;;26.52;20.70;;;24.50;57.20;;;;;;5136070;27;20025;-36
2021/06/09 08:00:01;;;;;;;;;;;24.40;57.60;;;;;;5137588;27;20038;-37
2021/06/09 08:02:27;;;;;;;21.77;18.17;;;25.30;54.40;;;;;;5136026;27;19903;-37
2021/06/09 08:04:53;;;;;;;18.98;16.75;;;25.50;53.90;;;;;;5136589;27;20514;-38
2021/06/09 08:07:19;;;;;;;23.75;17.55;;;25.50;53.30;;;;;;5137422;27;20030;-36
2021/06/09 08:09:45;;;;;;;19.45;16.35;;;25.80;51.80;;;;;;5137850;27;20458;-37
2021/06/09 08:12:11;;;;;;;19.85;16.77;;;25.50;53.00;;;;;;5137150;27;20019;-38
2021/06/09 08:14:38;;;;;;;21.23;17.00;;;25.80;51.80;;;;;;5136152;27;20028;-37
2021/06/09 08:17:06;;;;;;;24.65;16.85;;;25.80;51.80;;;;;;5136440;27;20069;-37
2021/06/09 08:19:32;;;;;;;19.83;17.65;;;25.50;52.80;;;;;;5136199;27;20026;-37
2021/06/09 08:21:58;;;;;;;20.15;17.00;;;25.80;51.50;;;;;;5136014;27;20026;-37
2021/06/09 08:24:23;;;;;;;27.88;16.45;;;26.20;50.70;;;;;;5136324;27;20065;-37
2021/06/09 08:26:49;;;;;;;17.25;15.13;;;26.00;51.60;;;;;;5135779;27;20027;-37
2021/06/09 08:29:15;;;;;;;18.60;15.25;;;25.80;50.40;;;;;;5135897;27;20110;-37
2021/06/09 08:31:41;;;;;;;18.20;15.23;;;25.50;51.40;;;;;;5134548;27;20102;-37
2021/06/09 08:34:08;;;;;;;19.60;15.40;;;26.20;50.40;;;;;;5137801;27;20418;-37
2021/06/09 08:36:35;;;;;;;17.20;14.15;;;25.20;52.10;;;;;;5135350;27;20032;-39
2021/06/09 08:39:04;;;;;;;15.32;13.73;;;25.40;51.30;;;;;;5137992;27;20023;-40
2021/06/09 08:41:33;;;;;;;19.13;13.55;;;25.70;50.70;;;;;;5135465;27;20123;-36
2021/06/09 08:44:01;;;;;;;16.63;14.57;;;26.00;49.60;;;;;;5135570;27;20426;-36
2021/06/09 08:46:27;;;;;;;18.88;13.65;;;26.80;48.20;;;;;;5137011;27;20034;-37
2021/06/09 08:48:56;;;;;;;14.93;12.95;;;27.30;46.10;;;;;;5116903;27;20030;-37
2021/06/09 08:51:22;;;;;;;17.25;13.52;;;27.90;44.40;;;;;;5136797;27;20511;-38
2021/06/09 08:53:53;;;;;;;16.85;14.80;;;27.30;45.80;;;;;;5135690;27;20019;-39
2021/06/09 08:56:21;;;;;;;16.13;14.23;;;27.60;45.40;;;;;;5136228;27;20064;-39
2021/06/09 08:58:48;;;;;;;15.60;13.52;;;27.40;45.00;;;;;;5133833;27;20106;-39
2021/06/09 09:01:15;;;;;;;16.23;14.52;;;28.30;43.30;;;;;;5136511;27;20519;-38
2021/06/09 09:03:47;;;;;;;19.02;15.70;;;28.30;43.20;;;;;;5134671;27;20027;-38
2021/06/09 09:06:13;;;;;;;18.85;15.85;;;28.00;43.50;;;;;;5135111;27;20019;-38
2021/06/09 09:08:39;;;;;;;17.38;15.20;;;26.90;46.70;;;;;;5134818;27;20023;-38
2021/06/09 09:11:05;;;;;;;15.60;12.43;;;26.40;48.50;;;;;;5135966;27;20374;-40
2021/06/09 09:13:34;;;;;;;16.98;13.57;;;27.20;46.40;;;;;;5136193;27;20369;-40
2021/06/09 09:16:00;;;;;;;16.27;13.87;;;27.30;46.70;;;;;;5135362;27;20360;-38
2021/06/09 09:18:46;;;;;;;16.27;14.05;;;27.10;45.50;;;;;;5135029;27;20389;-40
2021/06/09 09:21:31;;;;;;;16.98;15.27;;;26.20;47.30;;;;;;5134710;27;20486;-40
2021/06/09 09:23:56;;;;;;;17.08;15.38;;;25.90;48.50;;;;;;5133126;27;20466;-38
2021/06/09 09:26:26;;;;;;;15.43;13.82;;;27.00;46.00;;;;;;5134606;27;20023;-39
2021/06/09 09:29:15;;;;;;;15.90;14.27;;;27.60;45.30;;;;;;5134511;27;20114;-37
2021/06/09 09:31:45;;;;;;;17.73;13.77;;;28.20;43.40;;;;;;5134714;27;20494;-38
2021/06/09 09:34:47;;;;;;;13.77;12.00;;;27.00;47.20;;;;;;5134556;27;20042;-38
2021/06/09 09:37:19;;;;;;;13.95;12.25;;;26.80;47.20;;;;;;5051830;28;20092;-38
2021/06/09 09:40:05;;;;;;;15.02;13.43;;;26.50;47.40;;;;;;5120832;27;20031;-38
2021/06/09 09:42:35;;;;;;;15.20;13.70;;;25.60;49.90;;;;;;5134405;27;20374;-38
2021/06/09 09:45:36;;;;;;;16.17;13.63;;;26.80;46.90;;;;;;5133973;27;20034;-38
2021/06/09 09:48:12;;;;;;;14.35;12.25;;;27.80;44.40;;;;;;5134213;27;20371;-38
2021/06/09 09:50:45;;;;;;;14.57;12.15;;;28.20;43.00;;;;;;5134639;27;20046;-39
2021/06/09 09:53:21;;;;;;;13.88;12.50;;;28.40;42.00;;;;;;5133125;27;20035;-36
2021/06/09 09:55:53;;;;;;;22.08;12.23;;;28.50;42.30;;;;;;5133060;27;20094;-37
2021/06/09 09:58:20;;;;;;;14.85;12.52;;;28.70;42.30;;;;;;5134151;27;20522;-38
2021/06/09 10:00:45;;;;;;;14.10;11.57;;;30.00;39.80;;;;;;5134182;27;20019;-38
2021/06/09 10:03:14;;;;;;;14.40;11.02;;;28.70;41.80;;;;;;5134428;27;20022;-39
2021/06/09 10:05:40;;;;;;;14.07;12.70;;;27.70;44.10;;;;;;5134452;27;20027;-38
2021/06/09 10:08:06;;;;;;;14.93;12.52;;;26.50;46.70;;;;;;5134296;27;20034;-38
2021/06/09 10:10:32;;;;;;;15.27;12.25;;;26.40;47.50;;;;;;5133795;27;20031;-38
2021/06/09 10:13:10;;;;;;;17.05;11.98;;;27.80;44.60;;;;;;5133680;28;20027;-38
2021/06/09 10:15:47;;;;;;;11.18;10.07;;;28.00;43.20;;;;;;5133607;28;20072;-38
2021/06/09 10:18:19;;;;;;;13.27;11.23;;;27.90;44.00;;;;;;5134365;27;20031;-37
2021/06/09 10:20:48;;;;;;;13.10;11.27;;;29.00;41.10;;;;;;5136920;27;20101;-38
2021/06/09 10:23:37;;;;;;;16.73;12.20;;;29.70;39.40;;;;;;5136839;27;20030;-39
2021/06/09 10:26:12;;;;;;;15.63;12.90;;;29.20;40.80;;;;;;5137993;27;20088;-39
2021/06/09 10:29:04;;;;;;;13.43;11.02;;;28.50;42.00;;;;;;5137092;27;20092;-39
2021/06/09 10:31:36;;;;;;;15.38;11.40;;;29.30;39.90;;;;;;5136539;27;20046;-38
2021/06/09 10:34:02;;;;;;;14.27;12.57;;;28.80;40.70;;;;;;5137833;27;20019;-39
2021/06/09 10:36:28;;;;;;;10.75;9.65;;;28.50;40.70;;;;;;5137815;27;20034;-37
2021/06/09 10:38:55;;;;;;;12.93;11.63;;;27.80;41.60;;;;;;5137935;27;20029;-38
2021/06/09 10:41:40;;;;;;;15.90;12.45;;;28.10;42.20;;;;;;5137907;27;20367;-38
2021/06/09 10:44:07;;;;;;;13.23;10.48;;;28.80;40.80;;;;;;5137996;27;20470;-37
2021/06/09 10:46:37;;;;;;;13.98;10.07;;;29.10;38.10;;;;;;5137947;27;20042;-38
2021/06/09 10:49:05;;;;;;;12.88;11.32;;;29.30;39.10;;;;;;5137413;27;20023;-38
2021/06/09 10:51:30;;;;;;;13.13;11.32;;;29.20;39.20;;;;;;5137688;27;20023;-37
2021/06/09 10:53:59;;;;;;;14.95;10.77;;;29.30;38.90;;;;;;5137758;27;20522;-38
2021/06/09 10:56:26;;;;;;;12.50;10.67;;;29.00;38.90;;;;;;5137360;27;20050;-37
2021/06/09 10:58:52;;;;;;;12.23;11.02;;;29.70;37.10;;;;;;5137437;27;20051;-38
2021/06/09 11:01:23;;;;;;;11.57;9.77;;;28.80;39.00;;;;;;5137716;27;20035;-37
2021/06/09 11:03:53;;;;;;;14.73;9.98;;;29.60;37.90;;;;;;5136079;27;20023;-37
2021/06/09 11:06:18;;;;;;;;;;;29.30;38.10;;;;;;5138583;27;20354;-37
2021/06/09 11:08:44;;;;;;;14.65;12.30;;;28.30;39.80;;;;;;5137202;27;19907;-37
2021/06/09 11:11:18;;;;;;;13.07;11.48;;;27.70;41.70;;;;;;5138280;27;20034;-37
2021/06/09 11:13:47;;;;;;;15.13;12.70;;;28.30;41.00;;;;;;5137141;27;20034;-38
2021/06/09 11:16:15;;;;;;;13.35;10.77;;;29.80;37.90;;;;;;5137687;27;20038;-38
2021/06/09 11:18:43;;;;;;;12.20;10.98;;;30.10;37.50;;;;;;5137591;27;20023;-38
2021/06/09 11:21:11;;;;;;;12.85;11.55;;;30.40;36.00;;;;;;5137229;27;20027;-38
2021/06/09 11:23:40;;;;;;;13.20;11.85;;;30.70;36.40;;;;;;5137198;27;20019;-37
2021/06/09 11:26:22;;;;;;;12.88;11.57;;;30.80;36.70;;;;;;5137166;27;20479;-37
2021/06/09 11:28:47;;;;;;;13.38;12.05;;;30.00;38.00;;;;;;5136818;27;20395;-40
2021/06/09 11:31:25;;;;;;;13.32;11.55;;;28.30;40.40;;;;;;5135680;27;20071;-37
2021/06/09 11:33:50;;;;;;;16.88;10.95;;;27.30;42.50;;;;;;5136254;27;20030;-37
2021/06/09 11:36:19;;;;;;;14.23;11.65;;;27.20;42.50;;;;;;5135384;27;20023;-38
2021/06/09 11:38:50;;;;;;;11.55;10.40;;;27.80;40.90;;;;;;5135425;27;20452;-37
2021/06/09 11:41:22;;;;;;;12.55;9.27;;;29.10;37.50;;;;;;5136831;27;20427;-37
2021/06/09 11:43:51;;;;;;;11.40;10.32;;;29.00;37.30;;;;;;5136637;27;20382;-38
2021/06/09 11:46:17;;;;;;;15.82;10.70;;;29.00;37.00;;;;;;5136512;27;20052;-37
2021/06/09 11:48:59;;;;;;;11.15;8.90;;;29.10;37.10;;;;;;5136400;27;20058;-38
2021/06/09 11:51:32;;;;;;;9.75;8.75;;;29.30;36.20;;;;;;5136989;27;20071;-37
2021/06/09 11:54:26;;;;;;;10.80;9.70;;;29.30;37.00;;;;;;5134960;27;20092;-37
2021/06/09 11:56:57;;;;;;;10.48;9.38;;;30.30;35.20;;;;;;5128041;27;20078;-38
2021/06/09 11:59:30;;;;;;;12.05;10.63;;;30.80;34.50;;;;;;5137101;27;20439;-38
2021/06/09 12:02:05;;;;;;;14.88;11.98;;;30.60;34.70;;;;;;5136358;27;20034;-37
2021/06/09 12:04:36;;;;;;;10.73;9.73;;;30.80;35.00;;;;;;5136193;27;20094;-38
2021/06/09 12:07:08;;;;;;;16.05;12.35;;;30.70;35.30;;;;;;5136805;27;20027;-37
2021/06/09 12:09:35;;;;;;;13.02;10.00;;;30.10;36.20;;;;;;5136406;27;20040;-39
2021/06/09 12:12:05;;;;;;;11.77;10.63;;;30.30;35.90;;;;;;5136266;27;20056;-38
2021/06/09 12:14:33;;;;;;;12.45;10.73;;;30.10;36.40;;;;;;5136379;27;20146;-37
2021/06/09 12:17:11;;;;;;;12.32;10.77;;;29.70;36.90;;;;;;5134906;27;20027;-37
2021/06/09 12:19:39;;;;;;;15.13;9.93;;;28.70;38.40;;;;;;5136605;27;20027;-39
2021/06/09 12:22:07;;;;;;;13.15;11.68;;;28.80;37.20;;;;;;5136430;27;20024;-38
2021/06/09 12:24:35;;;;;;;10.25;9.25;;;29.60;35.80;;;;;;5135917;27;20039;-38
2021/06/09 12:27:11;;;;;;;10.27;9.25;;;29.80;35.70;;;;;;5117520;27;20023;-39
2021/06/09 12:29:41;;;;;;;9.45;8.35;;;29.70;35.50;;;;;;5135251;27;20382;-38
2021/06/09 12:32:18;;;;;;;11.25;8.48;;;30.10;35.10;;;;;;5135876;27;20027;-37
2021/06/09 12:34:52;;;;;;;9.63;8.40;;;30.50;34.40;;;;;;5134933;27;20051;-37
2021/06/09 12:37:22;;;;;;;11.27;8.35;;;30.90;34.10;;;;;;5136034;27;20080;-38
2021/06/09 12:40:15;;;;;;;10.45;9.32;;;28.70;36.90;;;;;;5134754;27;20027;-36